CST,Max TemperatureF,Mean TemperatureF,Min TemperatureF,Max Dew PointF,MeanDew PointF,Min DewpointF,Max Humidity, Mean Humidity, Min Humidity, Max Sea Level PressureIn, Mean Sea Level PressureIn, Min Sea Level PressureIn, Max VisibilityMiles, Mean VisibilityMiles, Min VisibilityMiles, Max Wind SpeedMPH, Mean Wind SpeedMPH, Max Gust SpeedMPH,PrecipitationIn, CloudCover, Events, WindDirDegrees
2013-2-1,10,1,-9,7,-3,-15,91,78,64,30.42,30.24,30.05,10,6,1,18,10,23,0.10,5,,216
2013-2-2,17,12,7,14,7,3,92,80,67,30.16,30.08,29.97,10,7,2,20,8,24,0.02,7,Snow,269
2013-2-3,20,16,11,16,11,6,96,82,67,30.12,30.01,29.91,10,6,1,24,11,29,0.07,7,Rain-Snow,250
2013-2-4,20,14,7,18,12,4,92,80,67,30.02,29.93,29.81,10,8,2,18,9,23,T,6,Snow,49
2013-2-5,31,20,9,25,18,6,92,80,68,30.13,29.89,29.75,10,6,1,37,11,41,0.03,7,Snow,259
2013-2-6,36,21,5,30,20,2,100,86,72,30.20,30.12,30.03,9,6,3,23,8,29,0.00,4,,164
2013-2-7,34,31,28,34,31,25,100,91,82,30.12,29.97,29.88,10,3,0,23,11,29,0.28,8,Fog-Rain-Snow,57
2013-2-8,30,24,17,24,19,15,92,81,69,30.38,30.32,30.14,10,10,9,18,7,24,0.00,6,,30
2013-2-9,30,26,21,26,23,19,96,87,78,30.37,30.20,30.01,9,7,2,24,14,30,T,7,,152
2013-2-10,43,35,27,35,31,26,100,96,92,30.01,29.55,29.33,10,3,0,38,20,48,0.33,8,Fog-Rain-Snow,158
2013-2-11,33,28,22,21,19,16,88,81,74,30.09,29.78,29.43,10,8,1,35,25,45,0.01,8,Snow,275
2013-2-12,34,28,21,26,21,17,92,79,66,30.13,30.03,29.88,10,10,7,21,10,25,0.00,4,,251
2013-2-13,37,30,22,31,28,21,96,86,75,29.87,29.77,29.65,10,9,5,10,6,16,0.00,4,,221
2013-2-14,37,31,25,32,27,18,96,80,64,30.06,29.83,29.60,10,9,3,26,15,33,T,7,Snow,296
2013-2-15,26,19,12,15,9,6,76,63,50,30.28,30.23,30.09,10,10,10,21,14,25,0.00,1,,321
2013-2-16,21,15,9,9,7,4,84,70,56,30.27,30.21,30.17,10,10,10,17,7,33,0.00,1,,329
2013-2-17,31,20,9,22,14,5,83,71,58,30.20,30.08,29.84,10,10,10,26,13,31,0.00,0,,154
2013-2-18,49,32,14,36,26,9,100,83,65,29.80,29.61,29.53,10,8,1,29,18,37,0.04,5,Rain-Snow,264
2013-2-19,14,9,3,7,2,-4,87,77,66,30.33,30.03,29.74,10,8,2,31,20,38,T,6,Snow,299
2013-2-20,23,13,2,10,4,-4,80,69,57,30.45,30.39,30.31,10,10,7,16,7,33,0.00,0,,354
2013-2-21,25,18,10,24,17,7,100,88,76,30.40,30.18,29.89,10,7,0,25,12,33,0.17,6,Fog-Snow,63
2013-2-22,27,24,21,25,23,19,100,92,84,29.93,29.84,29.77,9,3,0,18,9,23,0.19,8,Fog-Snow,152
2013-2-23,23,16,8,19,14,6,92,83,73,30.01,29.95,29.90,10,9,5,18,10,22,T,4,Snow,260
2013-2-24,31,17,2,22,14,0,95,79,63,30.16,30.11,30.01,10,8,4,9,3,10,0.00,0,,157
2013-2-25,38,29,19,28,24,18,92,78,64,30.16,30.10,29.97,9,7,4,13,5,16,0.00,4,,97
2013-2-26,32,30,28,29,27,24,100,86,72,29.94,29.70,29.60,9,4,0,29,18,40,0.23,8,Fog-Snow,32
2013-2-27,32,30,27,30,28,26,100,96,92,29.85,29.73,29.65,10,3,0,17,13,22,0.20,8,Fog-Snow,349
2013-2-28,33,30,27,29,26,24,100,85,69,30.13,30.01,29.84,10,7,2,20,11,24,0.03,8,Snow,358